createdAt,value
2019-05-11T00:00:05.873Z,50.10
2019-05-11T00:02:36.456Z,50.20
2019-05-11T00:05:08.018Z,50.10
2019-05-11T00:07:38.421Z,50.10
2019-05-11T00:10:08.938Z,50.10
2019-05-11T00:12:39.477Z,50.40
2019-05-11T00:15:09.850Z,50.10
2019-05-11T00:17:40.410Z,50.10
2019-05-11T00:20:10.947Z,50.00
2019-05-11T00:22:41.456Z,50.00
2019-05-11T00:25:11.952Z,50.00
2019-05-11T00:27:42.470Z,50.00
2019-05-11T00:30:12.960Z,49.90
2019-05-11T00:32:43.445Z,49.90
2019-05-11T00:35:13.761Z,49.90
2019-05-11T00:37:44.257Z,50.00
2019-05-11T00:40:15.198Z,50.00
2019-05-11T00:42:46.750Z,49.90
2019-05-11T00:45:17.153Z,50.00
2019-05-11T00:47:47.620Z,49.90
2019-05-11T00:50:18.011Z,49.90
2019-05-11T00:52:49.733Z,49.90
2019-05-11T00:55:20.100Z,49.80
2019-05-11T00:57:50.423Z,49.90
2019-05-11T01:00:20.751Z,49.80
2019-05-11T01:02:51.422Z,49.80
2019-05-11T01:05:21.753Z,49.80
2019-05-11T01:07:52.270Z,49.70
2019-05-11T01:10:33.683Z,49.70
2019-05-11T01:12:54.813Z,49.70
2019-05-11T01:15:25.303Z,49.70
2019-05-11T01:17:55.806Z,49.70
2019-05-11T01:20:26.281Z,49.70
2019-05-11T01:22:56.688Z,49.70
2019-05-11T01:25:28.141Z,49.70
2019-05-11T01:27:58.469Z,49.60
2019-05-11T01:30:28.878Z,49.60
2019-05-11T01:32:59.289Z,49.60
2019-05-11T01:35:29.719Z,49.60
2019-05-11T01:38:00.107Z,49.60
2019-05-11T01:40:30.521Z,49.60
2019-05-11T01:43:00.912Z,49.60
2019-05-11T01:45:31.334Z,49.60
2019-05-11T01:48:01.683Z,49.60
2019-05-11T01:50:32.158Z,50.40
2019-05-11T01:53:03.765Z,49.50
2019-05-11T01:55:34.149Z,49.50
2019-05-11T01:58:04.541Z,49.50
2019-05-11T02:00:34.921Z,49.50
2019-05-11T02:03:05.301Z,49.50
2019-05-11T02:05:35.618Z,49.50
2019-05-11T02:08:05.997Z,49.40
2019-05-11T02:10:36.431Z,49.40
2019-05-11T02:13:06.981Z,49.30
2019-05-11T02:15:37.352Z,49.30
2019-05-11T02:18:07.854Z,49.30
2019-05-11T02:20:38.148Z,49.30
2019-05-11T02:23:08.694Z,49.30
2019-05-11T02:25:39.044Z,49.20
2019-05-11T02:28:09.437Z,49.30
2019-05-11T02:30:39.853Z,49.30
2019-05-11T02:33:10.290Z,49.20
2019-05-11T02:35:40.951Z,49.20
2019-05-11T02:38:11.413Z,49.20
2019-05-11T02:40:41.770Z,49.20
2019-05-11T02:43:12.088Z,49.10
2019-05-11T02:45:43.227Z,49.10
2019-05-11T02:48:13.683Z,49.20
2019-05-11T02:50:44.145Z,49.10
2019-05-11T02:53:14.475Z,49.10
2019-05-11T02:55:44.902Z,49.10
2019-05-11T02:58:15.302Z,49.00
2019-05-11T03:00:45.758Z,49.00
2019-05-11T03:03:16.317Z,49.10
2019-05-11T03:05:46.846Z,49.10
2019-05-11T03:08:17.220Z,49.10
2019-05-11T03:10:47.700Z,49.00
2019-05-11T03:13:18.157Z,48.90
2019-05-11T03:15:48.623Z,49.00
2019-05-11T03:18:19.031Z,48.90
2019-05-11T03:20:49.617Z,49.00
2019-05-11T03:23:20.022Z,48.90
2019-05-11T03:25:50.487Z,48.90
2019-05-11T03:28:21.143Z,48.90
2019-05-11T03:30:51.656Z,48.90
2019-05-11T03:33:22.193Z,48.80
2019-05-11T03:35:52.646Z,48.80
2019-05-11T03:38:23.124Z,48.80
2019-05-11T03:40:54.483Z,48.90
2019-05-11T03:43:25.005Z,48.90
2019-05-11T03:45:55.355Z,48.80
2019-05-11T03:48:25.916Z,48.80
2019-05-11T03:50:56.360Z,48.80
2019-05-11T03:53:26.774Z,48.80
2019-05-11T03:55:57.229Z,48.80
2019-05-11T03:58:27.635Z,48.80
2019-05-11T04:00:58.040Z,48.80
2019-05-11T04:03:28.512Z,48.80
2019-05-11T04:05:58.983Z,49.30
2019-05-11T04:08:29.519Z,48.70
2019-05-11T04:10:59.898Z,48.70
2019-05-11T04:13:30.292Z,48.60
2019-05-11T04:16:00.725Z,48.70
2019-05-11T04:18:31.179Z,48.60
2019-05-11T04:21:01.581Z,48.60
2019-05-11T04:23:32.013Z,48.70
2019-05-11T04:26:02.364Z,48.60
2019-05-11T04:28:32.685Z,48.60
2019-05-11T04:31:03.083Z,48.50
2019-05-11T04:33:33.627Z,48.50
2019-05-11T04:36:04.139Z,48.50
2019-05-11T04:38:34.580Z,48.50
2019-05-11T04:41:05.031Z,48.60
2019-05-11T04:43:35.437Z,48.60
2019-05-11T04:46:05.954Z,48.50
2019-05-11T04:48:36.544Z,48.50
2019-05-11T04:51:07.184Z,48.40
2019-05-11T04:53:37.784Z,48.40
2019-05-11T04:56:20.162Z,48.40
2019-05-11T04:58:50.618Z,49.10
2019-05-11T05:01:21.116Z,48.40
2019-05-11T05:03:54.095Z,48.30
2019-05-11T05:06:24.603Z,48.30
2019-05-11T05:08:58.246Z,48.30
2019-05-11T05:11:30.761Z,48.30
2019-05-11T05:14:01.775Z,48.30
2019-05-11T05:16:31.846Z,48.30
2019-05-11T05:19:02.298Z,48.30
2019-05-11T05:21:32.612Z,48.30
2019-05-11T05:24:04.108Z,48.30
2019-05-11T05:26:34.555Z,48.30
2019-05-11T05:29:04.897Z,48.30
2019-05-11T05:31:35.475Z,48.20
2019-05-11T05:34:05.927Z,48.30
2019-05-11T05:36:36.433Z,48.30
2019-05-11T05:39:08.988Z,48.30
2019-05-11T05:41:39.894Z,48.20
2019-05-11T05:44:10.461Z,48.20
2019-05-11T05:46:40.889Z,48.20
2019-05-11T05:49:11.358Z,48.10
2019-05-11T05:51:41.833Z,48.20
2019-05-11T05:54:13.452Z,48.20
2019-05-11T05:56:43.993Z,48.20
2019-05-11T05:59:14.419Z,48.10
2019-05-11T06:01:44.836Z,48.10
2019-05-11T06:04:26.638Z,48.10
2019-05-11T06:06:57.134Z,48.00
2019-05-11T06:09:27.564Z,48.20
2019-05-11T06:11:57.976Z,48.10
2019-05-11T06:14:28.487Z,48.00
2019-05-11T06:16:58.917Z,48.10
2019-05-11T06:19:29.373Z,48.00
2019-05-11T06:21:59.803Z,48.00
2019-05-11T06:24:30.240Z,47.90
2019-05-11T06:27:00.579Z,48.00
2019-05-11T06:29:31.069Z,48.00
2019-05-11T06:32:01.360Z,47.90
2019-05-11T06:34:31.784Z,47.90
2019-05-11T06:37:02.149Z,47.90
2019-05-11T06:39:32.555Z,47.90
2019-05-11T06:42:02.878Z,47.90
2019-05-11T06:44:33.295Z,47.90
2019-05-11T06:47:03.716Z,47.90
2019-05-11T06:49:34.161Z,47.90
2019-05-11T06:52:04.557Z,48.00
2019-05-11T06:54:34.986Z,47.90
2019-05-11T06:57:05.498Z,47.90
2019-05-11T06:59:36.003Z,48.00
2019-05-11T07:02:06.471Z,47.90
2019-05-11T07:04:36.792Z,47.90
2019-05-11T07:07:07.273Z,47.90
2019-05-11T07:09:37.663Z,47.90
2019-05-11T07:12:08.203Z,47.80
2019-05-11T07:14:38.686Z,47.90
2019-05-11T07:17:09.165Z,47.80
2019-05-11T07:19:39.517Z,47.80
2019-05-11T07:22:09.952Z,47.80
2019-05-11T07:24:40.357Z,47.80
2019-05-11T07:27:10.860Z,47.80
2019-05-11T07:29:41.234Z,47.80
2019-05-11T07:32:22.366Z,47.80
2019-05-11T07:34:43.593Z,47.80
2019-05-11T07:37:14.779Z,47.80
2019-05-11T07:39:45.108Z,48.50
2019-05-11T07:42:17.860Z,47.80
2019-05-11T07:44:48.219Z,47.80
2019-05-11T07:47:18.884Z,47.60
2019-05-11T07:49:49.285Z,47.70
2019-05-11T07:52:20.093Z,47.70
2019-05-11T07:54:53.001Z,47.60
2019-05-11T07:57:22.536Z,47.60
2019-05-11T07:59:52.987Z,47.60
2019-05-11T08:02:23.353Z,47.60
2019-05-11T08:04:53.788Z,47.60
2019-05-11T08:07:25.288Z,47.50
2019-05-11T08:09:55.654Z,47.50
2019-05-11T08:12:28.290Z,47.40
2019-05-11T08:15:08.626Z,47.30
2019-05-11T08:17:30.024Z,47.40
2019-05-11T08:20:01.644Z,47.50
2019-05-11T08:22:44.052Z,47.30
2019-05-11T08:25:14.372Z,47.30
2019-05-11T08:27:44.700Z,47.30
2019-05-11T08:30:14.917Z,47.40
2019-05-11T08:32:45.328Z,47.30
2019-05-11T08:35:17.776Z,47.40
2019-05-11T08:37:48.002Z,47.40
2019-05-11T08:40:19.318Z,47.30
2019-05-11T08:42:49.725Z,47.30
2019-05-11T08:45:24.568Z,47.30
2019-05-11T08:47:52.026Z,47.20
2019-05-11T08:50:22.500Z,47.10
2019-05-11T08:52:52.799Z,47.00
2019-05-11T08:55:23.149Z,47.20
2019-05-11T08:57:53.698Z,46.90
2019-05-11T09:00:24.013Z,47.00
2019-05-11T09:02:54.349Z,47.00
2019-05-11T09:05:24.841Z,46.90
2019-05-11T09:07:57.555Z,46.90
2019-05-11T09:10:28.108Z,47.50
2019-05-11T09:12:59.190Z,46.70
2019-05-11T09:15:36.586Z,46.70
2019-05-11T09:18:01.957Z,46.80
2019-05-11T09:20:32.251Z,46.80
2019-05-11T09:23:02.565Z,46.70
2019-05-11T09:25:32.890Z,46.60
2019-05-11T09:28:03.367Z,46.60
2019-05-11T09:30:34.743Z,46.60
2019-05-11T09:33:05.505Z,46.60
2019-05-11T09:35:47.601Z,46.60
2019-05-11T09:38:08.275Z,46.60
2019-05-11T09:40:38.773Z,46.30
2019-05-11T09:43:09.191Z,46.50
2019-05-11T09:45:48.334Z,46.50
2019-05-11T09:48:11.755Z,46.50
2019-05-11T09:50:42.121Z,46.50
2019-05-11T09:53:12.504Z,46.40
2019-05-11T09:55:42.863Z,46.50
2019-05-11T09:58:13.463Z,46.50
2019-05-11T10:00:43.939Z,46.40
2019-05-11T10:03:15.380Z,46.40
2019-05-11T10:05:45.877Z,46.30
2019-05-11T10:08:37.914Z,46.40
2019-05-11T10:11:08.409Z,46.20
2019-05-11T10:13:39.127Z,46.20
2019-05-11T10:16:10.681Z,46.10
2019-05-11T10:18:41.261Z,46.00
2019-05-11T10:21:11.747Z,46.10
2019-05-11T10:23:42.552Z,46.00
2019-05-11T10:26:13.349Z,45.90
2019-05-11T10:28:43.754Z,45.80
2019-05-11T10:31:14.249Z,45.70
2019-05-11T10:33:44.734Z,45.60
2019-05-11T10:36:15.153Z,45.60
2019-05-11T10:38:45.460Z,45.50
2019-05-11T10:41:18.058Z,45.50
2019-05-11T10:43:48.985Z,45.40
2019-05-11T10:46:23.238Z,45.50
2019-05-11T10:48:51.730Z,45.40
2019-05-11T10:51:22.218Z,45.40
2019-05-11T10:53:52.667Z,45.40
2019-05-11T10:56:23.121Z,45.40
2019-05-11T10:58:53.592Z,45.40
2019-05-11T11:01:24.071Z,45.50
2019-05-11T11:03:58.693Z,45.40
2019-05-11T11:06:29.028Z,45.40
2019-05-11T11:08:59.402Z,45.40
2019-05-11T11:11:32.601Z,45.60
2019-05-11T11:14:03.021Z,45.30
2019-05-11T11:16:39.418Z,45.40
2019-05-11T11:19:07.529Z,45.30
2019-05-11T11:21:38.319Z,45.20
2019-05-11T11:24:09.079Z,45.20
2019-05-11T11:26:39.549Z,45.10
2019-05-11T11:29:10.040Z,45.10
2019-05-11T11:31:40.436Z,45.20
2019-05-11T11:34:10.859Z,45.10
2019-05-11T11:36:41.295Z,45.10
2019-05-11T11:39:11.706Z,45.10
2019-05-11T11:41:42.066Z,45.00
2019-05-11T11:44:12.496Z,45.00
2019-05-11T11:46:51.995Z,45.00
2019-05-11T11:49:14.956Z,45.10
2019-05-11T11:51:45.338Z,45.00
2019-05-11T11:54:17.959Z,44.90
2019-05-11T11:56:48.533Z,45.00
2019-05-11T11:59:19.178Z,45.00
2019-05-11T12:01:49.567Z,44.90
2019-05-11T12:04:20.007Z,44.90
2019-05-11T12:06:50.534Z,44.90
2019-05-11T12:09:21.031Z,44.90
2019-05-11T12:11:51.320Z,44.90
2019-05-11T12:14:21.932Z,44.90
2019-05-11T12:17:04.067Z,44.90
2019-05-11T12:19:24.418Z,44.80
2019-05-11T12:21:54.841Z,44.80
2019-05-11T12:24:25.230Z,44.80
2019-05-11T12:26:55.682Z,44.80
2019-05-11T12:29:28.139Z,44.80
2019-05-11T12:31:59.761Z,44.80
2019-05-11T12:34:30.224Z,44.80
2019-05-11T12:37:00.588Z,44.70
2019-05-11T12:39:30.995Z,44.70
2019-05-11T12:42:01.400Z,44.70
2019-05-11T12:44:32.041Z,44.70
2019-05-11T12:47:02.497Z,44.70
2019-05-11T12:49:32.887Z,44.70
2019-05-11T12:52:03.304Z,44.70
2019-05-11T12:54:34.102Z,45.50
2019-05-11T12:57:04.705Z,44.70
2019-05-11T12:59:35.164Z,44.60
2019-05-11T13:02:08.026Z,44.60
2019-05-11T13:04:38.480Z,44.60
2019-05-11T13:07:09.148Z,44.60
2019-05-11T13:09:39.563Z,44.60
2019-05-11T13:12:10.113Z,44.60
2019-05-11T13:14:40.513Z,44.60
2019-05-11T13:17:10.972Z,44.60
2019-05-11T13:19:41.321Z,44.60
2019-05-11T13:22:11.742Z,44.50
2019-05-11T13:24:42.145Z,44.50
2019-05-11T13:27:12.583Z,44.50
2019-05-11T13:29:42.902Z,44.60
2019-05-11T13:32:14.319Z,44.50
2019-05-11T13:34:44.723Z,44.50
2019-05-11T13:37:15.276Z,44.50
2019-05-11T13:39:45.707Z,44.50
2019-05-11T13:42:16.164Z,44.40
2019-05-11T13:44:47.850Z,44.40
2019-05-11T13:47:18.417Z,44.40
2019-05-11T13:49:48.896Z,44.40
2019-05-11T13:52:19.498Z,44.40
2019-05-11T13:54:50.009Z,44.40
2019-05-11T13:57:20.409Z,44.40
2019-05-11T13:59:50.807Z,44.70
2019-05-11T14:02:21.216Z,44.30
2019-05-11T14:04:51.591Z,44.40
2019-05-11T14:07:21.967Z,44.40
2019-05-11T14:09:53.405Z,44.30
2019-05-11T14:12:42.896Z,44.30
2019-05-11T14:15:13.362Z,44.20
2019-05-11T14:18:07.765Z,44.30
2019-05-11T14:20:37.850Z,44.20
2019-05-11T14:23:08.006Z,44.30
2019-05-11T14:25:38.364Z,44.20
2019-05-11T14:28:09.831Z,44.10
2019-05-11T14:30:40.141Z,44.10
2019-05-11T14:33:10.485Z,44.20
2019-05-11T14:35:40.903Z,43.50
2019-05-11T14:38:12.492Z,44.20
2019-05-11T14:40:42.821Z,44.10
2019-05-11T14:43:13.311Z,44.20
2019-05-11T14:45:43.775Z,44.10
2019-05-11T14:48:24.201Z,44.10
2019-05-11T14:50:48.723Z,44.10
2019-05-11T14:53:18.437Z,44.10
2019-05-11T14:55:49.021Z,44.10
2019-05-11T14:58:20.060Z,44.10
2019-05-11T15:00:51.749Z,44.10
2019-05-11T15:03:22.212Z,44.10
2019-05-11T15:05:52.684Z,44.10
2019-05-11T15:08:23.045Z,44.10
2019-05-11T15:10:53.431Z,44.00
2019-05-11T15:13:43.034Z,44.00
2019-05-11T15:16:13.459Z,44.00
2019-05-11T15:18:43.882Z,44.00
2019-05-11T15:21:15.335Z,43.90
2019-05-11T15:23:47.773Z,44.00
2019-05-11T15:26:18.711Z,43.90
2019-05-11T15:28:49.412Z,43.90
2019-05-11T15:31:22.420Z,43.90
2019-05-11T15:33:51.775Z,43.90
2019-05-11T15:36:22.172Z,43.90
2019-05-11T15:38:52.641Z,43.90
2019-05-11T15:41:23.052Z,43.90
2019-05-11T15:43:54.605Z,43.90
2019-05-11T15:46:24.998Z,43.90
2019-05-11T15:49:00.423Z,43.90
2019-05-11T15:51:29.123Z,43.90
2019-05-11T15:53:59.257Z,43.80
2019-05-11T15:56:29.689Z,43.80
2019-05-11T15:58:59.999Z,43.70
2019-05-11T16:01:30.387Z,43.80
2019-05-11T16:04:24.123Z,43.70
2019-05-11T16:06:57.511Z,43.70
2019-05-11T16:09:29.080Z,43.70
2019-05-11T16:11:59.485Z,43.70
2019-05-11T16:14:30.974Z,43.70
2019-05-11T16:17:01.357Z,43.70
2019-05-11T16:19:31.819Z,43.80
2019-05-11T16:22:02.263Z,43.70
2019-05-11T16:24:32.631Z,43.70
2019-05-11T16:27:03.170Z,43.80
2019-05-11T16:29:33.607Z,43.80
2019-05-11T16:32:04.026Z,43.70
2019-05-11T16:34:34.378Z,43.70
2019-05-11T16:37:05.562Z,43.80
2019-05-11T16:39:38.465Z,43.70
2019-05-11T16:42:08.740Z,43.70
2019-05-11T16:44:39.197Z,43.80
2019-05-11T16:47:09.587Z,43.70
2019-05-11T16:49:40.090Z,43.80
2019-05-11T16:52:10.431Z,43.70
2019-05-11T16:54:40.844Z,43.80
2019-05-11T16:57:11.283Z,43.80
2019-05-11T16:59:42.252Z,43.80
2019-05-11T17:02:12.584Z,43.70
2019-05-11T17:04:43.024Z,43.70
2019-05-11T17:07:13.350Z,43.80
2019-05-11T17:09:43.840Z,43.80
2019-05-11T17:12:14.211Z,43.70
2019-05-11T17:14:58.548Z,43.70
2019-05-11T17:17:29.151Z,43.70
2019-05-11T17:19:59.623Z,43.70
2019-05-11T17:22:30.072Z,43.70
2019-05-11T17:25:00.791Z,43.60
2019-05-11T17:27:31.110Z,43.60
2019-05-11T17:30:01.549Z,43.70
2019-05-11T17:32:33.080Z,43.70
2019-05-11T17:35:03.625Z,43.60
2019-05-11T17:37:34.073Z,43.60
2019-05-11T17:40:04.537Z,43.60
2019-05-11T17:42:37.477Z,44.40
2019-05-11T17:45:08.054Z,43.70
2019-05-11T17:47:38.919Z,43.70
2019-05-11T17:50:09.439Z,43.30
2019-05-11T17:52:39.833Z,43.70
2019-05-11T17:55:10.187Z,43.70
2019-05-11T17:57:41.669Z,43.70
2019-05-11T18:00:11.973Z,43.70
2019-05-11T18:02:42.373Z,43.70
2019-05-11T18:07:53.338Z,43.60
2019-05-11T18:10:23.712Z,43.70
2019-05-11T18:12:54.137Z,43.60
2019-05-11T18:15:24.420Z,43.60
2019-05-11T18:17:54.973Z,43.60
2019-05-11T18:20:25.441Z,43.60
2019-05-11T18:22:57.727Z,43.60
2019-05-11T18:25:28.768Z,43.60
2019-05-11T18:27:59.423Z,43.70
2019-05-11T18:30:29.832Z,43.70
2019-05-11T18:33:00.092Z,43.70
2019-05-11T18:35:30.366Z,43.70
2019-05-11T18:38:00.743Z,43.70
2019-05-11T18:40:31.165Z,43.70
2019-05-11T18:43:01.495Z,43.80
2019-05-11T18:45:31.891Z,43.70
2019-05-11T18:48:02.410Z,43.70
2019-05-11T18:50:34.011Z,43.60
2019-05-11T18:53:04.531Z,43.60
2019-05-11T18:55:34.908Z,43.70
2019-05-11T18:58:05.319Z,43.80
2019-05-11T19:00:38.039Z,43.70
2019-05-11T19:03:08.825Z,43.60
2019-05-11T19:05:39.387Z,43.70
2019-05-11T19:08:28.890Z,43.70
2019-05-11T19:10:59.254Z,43.70
2019-05-11T19:13:29.617Z,43.70
2019-05-11T19:16:00.198Z,44.50
2019-05-11T19:18:30.668Z,43.70
2019-05-11T19:21:01.048Z,43.70
2019-05-11T19:23:31.296Z,43.70
2019-05-11T19:26:01.771Z,43.80
2019-05-11T19:28:32.224Z,43.70
2019-05-11T19:31:02.655Z,43.70
2019-05-11T19:33:33.059Z,44.40
2019-05-11T19:36:03.502Z,43.70
2019-05-11T19:38:34.012Z,43.70
2019-05-11T19:41:04.427Z,44.40
2019-05-11T19:43:34.816Z,43.70
2019-05-11T19:46:05.292Z,43.70
2019-05-11T19:48:38.507Z,43.70
2019-05-11T19:51:11.792Z,43.70
2019-05-11T19:53:41.252Z,43.80
2019-05-11T19:56:11.653Z,43.80
2019-05-11T19:58:42.124Z,43.70
2019-05-11T20:01:12.590Z,43.80
2019-05-11T20:03:43.060Z,43.80
2019-05-11T20:06:13.651Z,43.70
2019-05-11T20:08:44.014Z,43.70
2019-05-11T20:11:14.543Z,43.80
2019-05-11T20:13:44.921Z,43.80
2019-05-11T20:16:15.389Z,43.80
2019-05-11T20:18:47.358Z,43.80
2019-05-11T20:21:22.578Z,43.80
2019-05-11T20:23:49.835Z,43.70
2019-05-11T20:26:20.181Z,43.70
2019-05-11T20:28:50.559Z,43.80
2019-05-11T20:31:20.911Z,43.70
2019-05-11T20:33:51.320Z,43.80
2019-05-11T20:36:21.840Z,43.80
2019-05-11T20:38:52.255Z,43.80
2019-05-11T20:41:22.708Z,43.80
2019-05-11T20:43:53.140Z,43.80
2019-05-11T20:46:23.674Z,43.80
2019-05-11T20:48:57.984Z,43.70
2019-05-11T20:51:34.153Z,44.60
2019-05-11T20:54:01.648Z,43.80
2019-05-11T20:56:32.093Z,43.80
2019-05-11T20:59:02.585Z,43.80
2019-05-11T21:01:33.108Z,43.80
2019-05-11T21:04:03.600Z,43.10
2019-05-11T21:06:34.133Z,43.80
2019-05-11T21:09:06.624Z,43.80
2019-05-11T21:11:37.004Z,43.80
2019-05-11T21:14:07.982Z,43.70
2019-05-11T21:16:39.730Z,43.70
2019-05-11T21:19:10.055Z,43.80
2019-05-11T21:21:50.170Z,43.80
2019-05-11T21:24:12.559Z,43.80
2019-05-11T21:26:42.990Z,43.80
2019-05-11T21:29:13.543Z,43.80
2019-05-11T21:31:43.931Z,43.80
2019-05-11T21:34:14.360Z,43.80
2019-05-11T21:36:44.773Z,43.70
2019-05-11T21:39:15.317Z,43.70
2019-05-11T21:41:47.742Z,43.70
2019-05-11T21:44:18.902Z,43.70
2019-05-11T21:46:49.391Z,43.80
2019-05-11T21:49:19.804Z,43.70
2019-05-11T21:52:03.635Z,43.70
2019-05-11T21:54:22.310Z,43.80
2019-05-11T21:56:52.712Z,43.80
2019-05-11T21:59:23.215Z,43.80
2019-05-11T22:01:53.574Z,43.80
2019-05-11T22:04:24.056Z,43.70
2019-05-11T22:06:54.489Z,43.70
2019-05-11T22:09:24.947Z,43.80
2019-05-11T22:11:55.347Z,43.80
2019-05-11T22:14:29.675Z,43.80
2019-05-11T22:17:00.200Z,43.80
2019-05-11T22:19:29.843Z,43.80
2019-05-11T22:22:00.265Z,44.30
2019-05-11T22:24:30.597Z,43.80
2019-05-11T22:27:01.047Z,43.80
2019-05-11T22:29:31.443Z,43.80
2019-05-11T22:32:01.775Z,43.70
2019-05-11T22:34:32.198Z,43.80
2019-05-11T22:37:02.690Z,43.80
2019-05-11T22:39:33.054Z,43.70
2019-05-11T22:42:03.573Z,43.90
2019-05-11T22:44:35.873Z,43.80
2019-05-11T22:47:06.057Z,43.70
2019-05-11T22:49:36.402Z,43.80
2019-05-11T22:52:08.661Z,43.90
2019-05-11T22:54:38.861Z,43.70
2019-05-11T22:57:09.239Z,43.80
2019-05-11T22:59:39.712Z,43.70
2019-05-11T23:02:10.845Z,43.80
2019-05-11T23:04:41.518Z,43.70
2019-05-11T23:07:11.927Z,43.80
2019-05-11T23:09:42.398Z,43.70
2019-05-11T23:12:12.731Z,43.80
2019-05-11T23:14:43.236Z,43.80
2019-05-11T23:17:13.686Z,43.70
2019-05-11T23:19:44.300Z,43.80
2019-05-11T23:22:14.718Z,43.80
2019-05-11T23:24:45.146Z,43.80
2019-05-11T23:27:15.572Z,43.80
2019-05-11T23:29:47.682Z,43.80
2019-05-11T23:32:18.120Z,43.80
2019-05-11T23:34:48.453Z,43.80
2019-05-11T23:37:18.977Z,43.80
2019-05-11T23:39:49.516Z,44.30
2019-05-11T23:42:19.969Z,43.80
2019-05-11T23:44:50.329Z,43.80
2019-05-11T23:47:20.819Z,43.80
2019-05-11T23:49:51.260Z,43.80
2019-05-11T23:52:21.748Z,43.90
2019-05-11T23:54:52.167Z,43.80
2019-05-11T23:57:22.601Z,43.80
2019-05-11T23:59:53.014Z,43.90
